RYR95L EGCC-EPMO
Flight info
| Callsign | RYR95L |
|---|---|
| Flight time | 1h 59m |
| Altitude | 37000 |
| Route | SONEX UL975 DESIG L603 LAMSO DCT HLZ DCT SUBIX L980 ADVAB P150 DOSIX |
| Aircraft | B738/M-SDE2E3FGHIRWXY/LB1 |
Departure
| Time | 2026-04-20 16:00 |
|---|---|
| Airport | Manchester Airport (EGCC) |
Arrival
| Time | 2026-04-20 17:59 |
|---|---|
| Airport | Warsaw Modlin Airport (EPMO) |
| Time | Latitude | Longitude | Altitude | Speed | Heading |
|---|---|---|---|---|---|
| 2026-04-20 15:22 | 53.36162 | -2.27699 | 232 ft | 0 kts | 14° |
| 2026-04-20 15:47 | 53.36158 | -2.27701 | 232 ft | 2 kts | 14° |
| 2026-04-20 15:47 | 53.36142 | -2.27708 | 232 ft | 2 kts | 14° |
| 2026-04-20 15:47 | 53.36127 | -2.27714 | 234 ft | 2 kts | 14° |
| 2026-04-20 15:47 | 53.36111 | -2.27721 | 232 ft | 2 kts | 20° |
| 2026-04-20 15:48 | 53.36099 | -2.27738 | 236 ft | 2 kts | 69° |
| 2026-04-20 15:48 | 53.36095 | -2.27765 | 234 ft | 2 kts | 85° |
| 2026-04-20 15:48 | 53.36095 | -2.27780 | 235 ft | 0 kts | 102° |
| 2026-04-20 15:52 | 53.36092 | -2.27760 | 235 ft | 7 kts | 102° |
| 2026-04-20 15:52 | 53.36071 | -2.27648 | 234 ft | 11 kts | 123° |
| 2026-04-20 15:53 | 53.35924 | -2.27639 | 232 ft | 13 kts | 186° |
| 2026-04-20 15:53 | 53.35832 | -2.27654 | 232 ft | 14 kts | 186° |
| 2026-04-20 15:53 | 53.35757 | -2.27669 | 233 ft | 8 kts | 196° |
| 2026-04-20 15:53 | 53.35706 | -2.27731 | 232 ft | 10 kts | 230° |
| 2026-04-20 15:54 | 53.35654 | -2.27838 | 232 ft | 14 kts | 230° |
| 2026-04-20 15:54 | 53.35599 | -2.27953 | 232 ft | 14 kts | 231° |
| 2026-04-20 15:54 | 53.35528 | -2.28084 | 232 ft | 16 kts | 220° |
| 2026-04-20 15:54 | 53.35419 | -2.28159 | 234 ft | 18 kts | 191° |
| 2026-04-20 15:55 | 53.35350 | -2.28174 | 232 ft | 9 kts | 193° |
| 2026-04-20 15:55 | 53.35285 | -2.28224 | 232 ft | 12 kts | 212° |
| 2026-04-20 15:55 | 53.35209 | -2.28342 | 232 ft | 18 kts | 232° |
| 2026-04-20 15:55 | 53.35124 | -2.28521 | 232 ft | 21 kts | 232° |
| 2026-04-20 15:56 | 53.35034 | -2.28707 | 232 ft | 20 kts | 229° |
| 2026-04-20 15:56 | 53.34938 | -2.28875 | 232 ft | 20 kts | 226° |
| 2026-04-20 15:56 | 53.34850 | -2.29025 | 232 ft | 14 kts | 221° |
| 2026-04-20 15:56 | 53.34811 | -2.29061 | 232 ft | 0 kts | 194° |
| 2026-04-20 15:58 | 53.34788 | -2.29070 | 232 ft | 9 kts | 190° |
| 2026-04-20 15:58 | 53.34701 | -2.29035 | 232 ft | 15 kts | 147° |
| 2026-04-20 15:58 | 53.34665 | -2.28938 | 232 ft | 7 kts | 77° |
| 2026-04-20 15:59 | 53.34703 | -2.28881 | 232 ft | 8 kts | 36° |
| 2026-04-20 15:59 | 53.34734 | -2.28825 | 231 ft | 1 kts | 50° |
| 2026-04-20 15:59 | 53.34821 | -2.28641 | 233 ft | 56 kts | 52° |
| 2026-04-20 15:59 | 53.35229 | -2.27800 | 230 ft | 127 kts | 51° |
| 2026-04-20 16:00 | 53.35895 | -2.26403 | 408 ft | 170 kts | 52° |
| 2026-04-20 16:00 | 53.36649 | -2.24831 | 1233 ft | 173 kts | 53° |
| 2026-04-20 16:00 | 53.37411 | -2.23287 | 2266 ft | 170 kts | 52° |
| 2026-04-20 16:00 | 53.38223 | -2.21710 | 2950 ft | 187 kts | 50° |
| 2026-04-20 16:01 | 53.39083 | -2.20135 | 3908 ft | 183 kts | 49° |
| 2026-04-20 16:01 | 53.39985 | -2.18533 | 4472 ft | 203 kts | 49° |
| 2026-04-20 16:01 | 53.41010 | -2.16671 | 4736 ft | 226 kts | 49° |
| 2026-04-20 16:01 | 53.42153 | -2.14614 | 4956 ft | 253 kts | 48° |
| 2026-04-20 16:02 | 53.43415 | -2.12491 | 5004 ft | 258 kts | 47° |
| 2026-04-20 16:02 | 53.44591 | -2.10240 | 5005 ft | 256 kts | 54° |
| 2026-04-20 16:02 | 53.45614 | -2.07792 | 5016 ft | 257 kts | 58° |
| 2026-04-20 16:02 | 53.46545 | -2.05221 | 5347 ft | 263 kts | 61° |
| 2026-04-20 16:03 | 53.47447 | -2.02571 | 6404 ft | 259 kts | 62° |
| 2026-04-20 16:03 | 53.47964 | -1.99673 | 7219 ft | 264 kts | 91° |
| 2026-04-20 16:03 | 53.47751 | -1.96624 | 8082 ft | 266 kts | 97° |
| 2026-04-20 16:03 | 53.47467 | -1.93532 | 8916 ft | 271 kts | 97° |
| 2026-04-20 16:04 | 53.47174 | -1.90375 | 9698 ft | 277 kts | 97° |
| 2026-04-20 16:04 | 53.46884 | -1.87166 | 10551 ft | 278 kts | 97° |
| 2026-04-20 16:04 | 53.46592 | -1.83851 | 10927 ft | 299 kts | 96° |
| 2026-04-20 16:04 | 53.46281 | -1.80256 | 11117 ft | 323 kts | 95° |
| 2026-04-20 16:05 | 53.45953 | -1.76406 | 11417 ft | 341 kts | 96° |
| 2026-04-20 16:05 | 53.45612 | -1.72400 | 11998 ft | 350 kts | 97° |
| 2026-04-20 16:05 | 53.45266 | -1.68322 | 12778 ft | 353 kts | 97° |
| 2026-04-20 16:05 | 53.44918 | -1.64221 | 13519 ft | 358 kts | 97° |
| 2026-04-20 16:06 | 53.44566 | -1.60081 | 14195 ft | 364 kts | 97° |
| 2026-04-20 16:06 | 53.44206 | -1.55850 | 14823 ft | 368 kts | 97° |
| 2026-04-20 16:06 | 53.43840 | -1.51564 | 15477 ft | 373 kts | 97° |
| 2026-04-20 16:06 | 53.43467 | -1.47219 | 16144 ft | 377 kts | 97° |
| 2026-04-20 16:07 | 53.43094 | -1.42888 | 16747 ft | 382 kts | 97° |
| 2026-04-20 16:07 | 53.42712 | -1.38458 | 17376 ft | 386 kts | 97° |
| 2026-04-20 16:07 | 53.42323 | -1.33975 | 18002 ft | 391 kts | 97° |
| 2026-04-20 16:07 | 53.41927 | -1.29449 | 18661 ft | 394 kts | 97° |
| 2026-04-20 16:08 | 53.41360 | -1.24902 | 19155 ft | 400 kts | 105° |
| 2026-04-20 16:08 | 53.40550 | -1.20424 | 19761 ft | 402 kts | 106° |
| 2026-04-20 16:08 | 53.39711 | -1.15979 | 20261 ft | 407 kts | 107° |
| 2026-04-20 16:08 | 53.38849 | -1.11423 | 20805 ft | 411 kts | 107° |
| 2026-04-20 16:09 | 53.37986 | -1.06831 | 21340 ft | 414 kts | 106° |
| 2026-04-20 16:09 | 53.37123 | -1.02195 | 21888 ft | 417 kts | 106° |
| 2026-04-20 16:09 | 53.36260 | -0.97539 | 22417 ft | 420 kts | 106° |
| 2026-04-20 16:09 | 53.35402 | -0.92905 | 22921 ft | 423 kts | 106° |
| 2026-04-20 16:10 | 53.34526 | -0.88177 | 23397 ft | 427 kts | 106° |
| 2026-04-20 16:10 | 53.33641 | -0.83411 | 23876 ft | 430 kts | 106° |
| 2026-04-20 16:10 | 53.32745 | -0.78597 | 24268 ft | 434 kts | 106° |
| 2026-04-20 16:10 | 53.31838 | -0.73740 | 24644 ft | 437 kts | 106° |
| 2026-04-20 16:11 | 53.30937 | -0.68930 | 25004 ft | 441 kts | 106° |
| 2026-04-20 16:11 | 53.30015 | -0.64028 | 25376 ft | 444 kts | 106° |
| 2026-04-20 16:11 | 53.29084 | -0.59093 | 25752 ft | 446 kts | 106° |
| 2026-04-20 16:11 | 53.28143 | -0.54116 | 26101 ft | 450 kts | 106° |
| 2026-04-20 16:12 | 53.27195 | -0.49109 | 26438 ft | 453 kts | 107° |
| 2026-04-20 16:12 | 53.26237 | -0.44067 | 26788 ft | 456 kts | 107° |
| 2026-04-20 16:12 | 53.25288 | -0.39057 | 27128 ft | 459 kts | 106° |
| 2026-04-20 16:12 | 53.24326 | -0.33964 | 27455 ft | 462 kts | 106° |
| 2026-04-20 16:13 | 53.23351 | -0.28817 | 27767 ft | 465 kts | 107° |
| 2026-04-20 16:13 | 53.22360 | -0.23646 | 28111 ft | 468 kts | 107° |
| 2026-04-20 16:13 | 53.21696 | -0.20207 | 28318 ft | 469 kts | 107° |
| 2026-04-20 16:13 | 53.20359 | -0.13300 | 28730 ft | 473 kts | 107° |
| 2026-04-20 16:14 | 53.19344 | -0.08063 | 28999 ft | 476 kts | 107° |
| 2026-04-20 16:14 | 53.18653 | -0.04504 | 29196 ft | 478 kts | 107° |
| 2026-04-20 16:14 | 53.17636 | 0.00733 | 29492 ft | 480 kts | 107° |
| 2026-04-20 16:14 | 53.16602 | 0.06052 | 29779 ft | 482 kts | 107° |
| 2026-04-20 16:15 | 53.15564 | 0.11389 | 30066 ft | 485 kts | 107° |
| 2026-04-20 16:15 | 53.14524 | 0.16727 | 30414 ft | 485 kts | 107° |
| 2026-04-20 16:15 | 53.13481 | 0.22065 | 30767 ft | 484 kts | 107° |
| 2026-04-20 16:15 | 53.12438 | 0.27385 | 31078 ft | 484 kts | 107° |
| 2026-04-20 16:16 | 53.11388 | 0.32731 | 31336 ft | 485 kts | 107° |
| 2026-04-20 16:16 | 53.10336 | 0.38068 | 31603 ft | 486 kts | 107° |
| 2026-04-20 16:16 | 53.09282 | 0.43404 | 31904 ft | 486 kts | 107° |
| 2026-04-20 16:16 | 53.08220 | 0.48762 | 32204 ft | 485 kts | 107° |
| 2026-04-20 16:17 | 53.07173 | 0.54028 | 32465 ft | 486 kts | 107° |
| 2026-04-20 16:17 | 53.06109 | 0.59369 | 32702 ft | 487 kts | 107° |
| 2026-04-20 16:17 | 53.05040 | 0.64718 | 33004 ft | 487 kts | 108° |
| 2026-04-20 16:17 | 53.03970 | 0.70060 | 33288 ft | 487 kts | 108° |
| 2026-04-20 16:18 | 53.02897 | 0.75401 | 33534 ft | 488 kts | 108° |
| 2026-04-20 16:18 | 53.01820 | 0.80752 | 33769 ft | 489 kts | 108° |
| 2026-04-20 16:18 | 53.00739 | 0.86106 | 34047 ft | 489 kts | 108° |
| 2026-04-20 16:18 | 52.99655 | 0.91463 | 34312 ft | 489 kts | 108° |
| 2026-04-20 16:19 | 52.98570 | 0.96810 | 34516 ft | 489 kts | 108° |
| 2026-04-20 16:19 | 52.97594 | 1.02136 | 34737 ft | 488 kts | 101° |
| 2026-04-20 16:19 | 52.96911 | 1.07654 | 35005 ft | 486 kts | 99° |
| 2026-04-20 16:19 | 52.96290 | 1.13154 | 35257 ft | 485 kts | 99° |
| 2026-04-20 16:20 | 52.95684 | 1.18670 | 35455 ft | 485 kts | 99° |
| 2026-04-20 16:20 | 52.95072 | 1.24194 | 35676 ft | 485 kts | 99° |
| 2026-04-20 16:20 | 52.94461 | 1.29600 | 35922 ft | 484 kts | 99° |
| 2026-04-20 16:20 | 52.93826 | 1.35101 | 36170 ft | 483 kts | 99° |
| 2026-04-20 16:21 | 52.93186 | 1.40552 | 36387 ft | 482 kts | 100° |
| 2026-04-20 16:21 | 52.92540 | 1.46006 | 36602 ft | 482 kts | 100° |
| 2026-04-20 16:21 | 52.91890 | 1.51449 | 36821 ft | 481 kts | 100° |
| 2026-04-20 16:21 | 52.91239 | 1.56882 | 37015 ft | 481 kts | 100° |
| 2026-04-20 16:22 | 52.90594 | 1.62248 | 37201 ft | 481 kts | 100° |
| 2026-04-20 16:22 | 52.89939 | 1.67671 | 37295 ft | 482 kts | 100° |
| 2026-04-20 16:22 | 52.88614 | 1.78598 | 37290 ft | 482 kts | 100° |
| 2026-04-20 16:23 | 52.87286 | 1.89457 | 37278 ft | 478 kts | 100° |
| 2026-04-20 16:23 | 52.85967 | 2.00158 | 37283 ft | 475 kts | 100° |
| 2026-04-20 16:24 | 52.84637 | 2.10869 | 37286 ft | 473 kts | 101° |
| 2026-04-20 16:24 | 52.83310 | 2.21473 | 37283 ft | 473 kts | 101° |
| 2026-04-20 16:25 | 52.81962 | 2.32163 | 37286 ft | 474 kts | 101° |
| 2026-04-20 16:25 | 52.80612 | 2.42796 | 37288 ft | 476 kts | 101° |
| 2026-04-20 16:26 | 52.79240 | 2.53585 | 37283 ft | 479 kts | 101° |
| 2026-04-20 16:26 | 52.77850 | 2.64321 | 37281 ft | 481 kts | 101° |
| 2026-04-20 16:27 | 52.76434 | 2.75167 | 37277 ft | 483 kts | 101° |
| 2026-04-20 16:27 | 52.75019 | 2.86039 | 37270 ft | 485 kts | 101° |
| 2026-04-20 16:28 | 52.73630 | 2.96872 | 37267 ft | 485 kts | 100° |
| 2026-04-20 16:28 | 52.73029 | 3.07909 | 37272 ft | 482 kts | 90° |
| 2026-04-20 16:29 | 52.72915 | 3.19009 | 37258 ft | 482 kts | 89° |
| 2026-04-20 16:29 | 52.72797 | 3.30073 | 37251 ft | 481 kts | 90° |
| 2026-04-20 16:30 | 52.72630 | 3.41025 | 37250 ft | 480 kts | 90° |
| 2026-04-20 16:30 | 52.72430 | 3.52013 | 37250 ft | 479 kts | 90° |
| 2026-04-20 16:31 | 52.72216 | 3.62984 | 37251 ft | 478 kts | 90° |
| 2026-04-20 16:31 | 52.71994 | 3.73924 | 37249 ft | 477 kts | 90° |
| 2026-04-20 16:32 | 52.71764 | 3.84856 | 37250 ft | 476 kts | 91° |
| 2026-04-20 16:32 | 52.71525 | 3.95705 | 37249 ft | 476 kts | 91° |
| 2026-04-20 16:33 | 52.71275 | 4.06642 | 37244 ft | 476 kts | 91° |
| 2026-04-20 16:33 | 52.71017 | 4.17490 | 37243 ft | 476 kts | 91° |
| 2026-04-20 16:34 | 52.70746 | 4.28448 | 37242 ft | 477 kts | 91° |
| 2026-04-20 16:34 | 52.70467 | 4.39311 | 37238 ft | 477 kts | 91° |
| 2026-04-20 16:35 | 52.70176 | 4.50266 | 37236 ft | 478 kts | 91° |
| 2026-04-20 16:35 | 52.69875 | 4.61229 | 37234 ft | 478 kts | 91° |
| 2026-04-20 16:36 | 52.69564 | 4.72144 | 37236 ft | 479 kts | 91° |
| 2026-04-20 16:36 | 52.69242 | 4.83133 | 37233 ft | 479 kts | 91° |
| 2026-04-20 16:37 | 52.68909 | 4.94127 | 37231 ft | 479 kts | 92° |
| 2026-04-20 16:37 | 52.68568 | 5.05036 | 37231 ft | 479 kts | 92° |
| 2026-04-20 16:38 | 52.68216 | 5.15997 | 37229 ft | 479 kts | 92° |
| 2026-04-20 16:38 | 52.67853 | 5.26971 | 37231 ft | 479 kts | 92° |
| 2026-04-20 16:39 | 52.67480 | 5.37934 | 37231 ft | 478 kts | 92° |
| 2026-04-20 16:39 | 52.67101 | 5.48798 | 37237 ft | 478 kts | 92° |
| 2026-04-20 16:40 | 52.66709 | 5.59726 | 37235 ft | 478 kts | 92° |
| 2026-04-20 16:40 | 52.66307 | 5.70676 | 37234 ft | 477 kts | 92° |
| 2026-04-20 16:41 | 52.65896 | 5.81579 | 37232 ft | 477 kts | 92° |
| 2026-04-20 16:41 | 52.65477 | 5.92425 | 37225 ft | 477 kts | 92° |
| 2026-04-20 16:42 | 52.65046 | 6.03336 | 37224 ft | 477 kts | 93° |
| 2026-04-20 16:42 | 52.64605 | 6.14238 | 37214 ft | 477 kts | 93° |
| 2026-04-20 16:43 | 52.64154 | 6.25130 | 37223 ft | 477 kts | 93° |
| 2026-04-20 16:43 | 52.63696 | 6.35959 | 37212 ft | 477 kts | 93° |
| 2026-04-20 16:44 | 52.63226 | 6.46826 | 37223 ft | 477 kts | 93° |
| 2026-04-20 16:44 | 52.62745 | 6.57723 | 37225 ft | 477 kts | 93° |
| 2026-04-20 16:45 | 52.62253 | 6.68631 | 37221 ft | 478 kts | 94° |
| 2026-04-20 16:45 | 52.61750 | 6.79552 | 37210 ft | 478 kts | 94° |
| 2026-04-20 16:46 | 52.61238 | 6.90464 | 37215 ft | 478 kts | 94° |
| 2026-04-20 16:46 | 52.60718 | 7.01317 | 37206 ft | 478 kts | 94° |
| 2026-04-20 16:47 | 52.60185 | 7.12238 | 37220 ft | 479 kts | 94° |
| 2026-04-20 16:47 | 52.59642 | 7.23158 | 37205 ft | 479 kts | 94° |
| 2026-04-20 16:48 | 52.59092 | 7.34010 | 37209 ft | 479 kts | 94° |
| 2026-04-20 16:48 | 52.58530 | 7.44918 | 37212 ft | 479 kts | 94° |
| 2026-04-20 16:49 | 52.57956 | 7.55832 | 37209 ft | 478 kts | 94° |
| 2026-04-20 16:49 | 52.57373 | 7.66746 | 37207 ft | 478 kts | 94° |
| 2026-04-20 16:50 | 52.56786 | 7.77545 | 37191 ft | 478 kts | 95° |
| 2026-04-20 16:50 | 52.56185 | 7.88403 | 37190 ft | 477 kts | 95° |
| 2026-04-20 16:51 | 52.55573 | 7.99277 | 37185 ft | 477 kts | 95° |
| 2026-04-20 16:51 | 52.54952 | 8.10151 | 37190 ft | 477 kts | 95° |
| 2026-04-20 16:52 | 52.54326 | 8.20924 | 37186 ft | 477 kts | 95° |
| 2026-04-20 16:52 | 52.53685 | 8.31770 | 37183 ft | 477 kts | 95° |
| 2026-04-20 16:53 | 52.53036 | 8.42602 | 37179 ft | 477 kts | 95° |
| 2026-04-20 16:53 | 52.52376 | 8.53436 | 37180 ft | 477 kts | 95° |
| 2026-04-20 16:54 | 52.51711 | 8.64188 | 37175 ft | 477 kts | 95° |
| 2026-04-20 16:54 | 52.51032 | 8.75015 | 37180 ft | 477 kts | 96° |
| 2026-04-20 16:55 | 52.50343 | 8.85841 | 37183 ft | 477 kts | 96° |
| 2026-04-20 16:55 | 52.49644 | 8.96655 | 37180 ft | 478 kts | 96° |
| 2026-04-20 16:56 | 52.48932 | 9.07513 | 37173 ft | 478 kts | 96° |
| 2026-04-20 16:56 | 52.48212 | 9.18346 | 37161 ft | 477 kts | 96° |
| 2026-04-20 16:57 | 52.47482 | 9.29178 | 37165 ft | 477 kts | 96° |
| 2026-04-20 16:57 | 52.46747 | 9.39933 | 37157 ft | 477 kts | 96° |
| 2026-04-20 16:58 | 52.45996 | 9.50769 | 37159 ft | 477 kts | 96° |
| 2026-04-20 16:58 | 52.45237 | 9.61576 | 37183 ft | 476 kts | 96° |
| 2026-04-20 16:59 | 52.44468 | 9.72380 | 37185 ft | 476 kts | 97° |
| 2026-04-20 16:59 | 52.43696 | 9.83094 | 37184 ft | 475 kts | 97° |
| 2026-04-20 17:00 | 52.42512 | 9.99251 | 37162 ft | 475 kts | 97° |
| 2026-04-20 17:01 | 52.41717 | 10.09940 | 37154 ft | 475 kts | 97° |
| 2026-04-20 17:01 | 52.40906 | 10.20706 | 37156 ft | 475 kts | 97° |
| 2026-04-20 17:02 | 52.40087 | 10.31436 | 37159 ft | 475 kts | 97° |
| 2026-04-20 17:02 | 52.39257 | 10.42183 | 37163 ft | 475 kts | 97° |
| 2026-04-20 17:03 | 52.38422 | 10.52870 | 37157 ft | 475 kts | 98° |
| 2026-04-20 17:03 | 52.37572 | 10.63626 | 37162 ft | 476 kts | 98° |
| 2026-04-20 17:04 | 52.36713 | 10.74384 | 37152 ft | 476 kts | 98° |
| 2026-04-20 17:04 | 52.36286 | 10.85127 | 37151 ft | 476 kts | 89° |
| 2026-04-20 17:05 | 52.36526 | 10.95981 | 37138 ft | 477 kts | 88° |
| 2026-04-20 17:05 | 52.36797 | 11.06841 | 37140 ft | 477 kts | 88° |
| 2026-04-20 17:06 | 52.37019 | 11.17695 | 37133 ft | 477 kts | 89° |
| 2026-04-20 17:06 | 52.37205 | 11.28504 | 37121 ft | 477 kts | 89° |
| 2026-04-20 17:07 | 52.37375 | 11.39374 | 37129 ft | 477 kts | 89° |
| 2026-04-20 17:07 | 52.37536 | 11.50254 | 37121 ft | 476 kts | 89° |
| 2026-04-20 17:08 | 52.37737 | 11.61090 | 37128 ft | 476 kts | 88° |
| 2026-04-20 17:08 | 52.38051 | 11.71852 | 37122 ft | 475 kts | 88° |
| 2026-04-20 17:09 | 52.38371 | 11.82667 | 37116 ft | 475 kts | 88° |
| 2026-04-20 17:09 | 52.38662 | 11.93400 | 37122 ft | 474 kts | 88° |
| 2026-04-20 17:10 | 52.38934 | 12.04195 | 37112 ft | 473 kts | 88° |
| 2026-04-20 17:10 | 52.39193 | 12.14970 | 37108 ft | 473 kts | 88° |
| 2026-04-20 17:11 | 52.39401 | 12.23922 | 37121 ft | 473 kts | 88° |
| 2026-04-20 17:11 | 52.39681 | 12.36447 | 37120 ft | 472 kts | 88° |
| 2026-04-20 17:12 | 52.39874 | 12.45401 | 37116 ft | 472 kts | 89° |
| 2026-04-20 17:12 | 52.40096 | 12.56164 | 37117 ft | 472 kts | 89° |
| 2026-04-20 17:13 | 52.40309 | 12.66930 | 37123 ft | 473 kts | 89° |
| 2026-04-20 17:13 | 52.40512 | 12.77729 | 37117 ft | 473 kts | 89° |
| 2026-04-20 17:14 | 52.40704 | 12.88463 | 37120 ft | 473 kts | 89° |
| 2026-04-20 17:14 | 52.40888 | 12.99253 | 37113 ft | 473 kts | 89° |
| 2026-04-20 17:15 | 52.41061 | 13.09983 | 37104 ft | 474 kts | 89° |
| 2026-04-20 17:15 | 52.41225 | 13.20778 | 37108 ft | 474 kts | 89° |
| 2026-04-20 17:16 | 52.41379 | 13.31583 | 37104 ft | 474 kts | 89° |
| 2026-04-20 17:16 | 52.41523 | 13.42385 | 37103 ft | 474 kts | 89° |
| 2026-04-20 17:17 | 52.41658 | 13.53215 | 37108 ft | 474 kts | 89° |
| 2026-04-20 17:17 | 52.41782 | 13.63975 | 37098 ft | 474 kts | 89° |
| 2026-04-20 17:18 | 52.41897 | 13.74799 | 37105 ft | 474 kts | 89° |
| 2026-04-20 17:18 | 52.42001 | 13.85548 | 37095 ft | 474 kts | 90° |
| 2026-04-20 17:19 | 52.42097 | 13.96388 | 37106 ft | 474 kts | 90° |
| 2026-04-20 17:19 | 52.42182 | 14.07128 | 37104 ft | 473 kts | 90° |
| 2026-04-20 17:20 | 52.42257 | 14.17939 | 37104 ft | 473 kts | 90° |
| 2026-04-20 17:20 | 52.42323 | 14.28679 | 37099 ft | 473 kts | 90° |
| 2026-04-20 17:21 | 52.42379 | 14.39457 | 37099 ft | 472 kts | 90° |
| 2026-04-20 17:21 | 52.42424 | 14.50160 | 37091 ft | 471 kts | 90° |
| 2026-04-20 17:22 | 52.42460 | 14.60897 | 37084 ft | 470 kts | 90° |
| 2026-04-20 17:22 | 52.42487 | 14.71612 | 37090 ft | 469 kts | 90° |
| 2026-04-20 17:23 | 52.42503 | 14.82331 | 37087 ft | 468 kts | 90° |
| 2026-04-20 17:23 | 52.42510 | 14.92935 | 37088 ft | 467 kts | 90° |
| 2026-04-20 17:24 | 52.42508 | 15.03589 | 37086 ft | 467 kts | 90° |
| 2026-04-20 17:24 | 52.42502 | 15.08906 | 37197 ft | 465 kts | 89° |
| 2026-04-20 17:24 | 52.42493 | 15.14167 | 37138 ft | 459 kts | 88° |
| 2026-04-20 17:25 | 52.42472 | 15.24548 | 37097 ft | 452 kts | 89° |
| 2026-04-20 17:25 | 52.42443 | 15.34774 | 37082 ft | 451 kts | 89° |
| 2026-04-20 17:26 | 52.42406 | 15.45034 | 37086 ft | 451 kts | 89° |
| 2026-04-20 17:26 | 52.42359 | 15.55304 | 37089 ft | 451 kts | 89° |
| 2026-04-20 17:27 | 52.42302 | 15.65618 | 37086 ft | 453 kts | 89° |
| 2026-04-20 17:27 | 52.42237 | 15.75889 | 37087 ft | 454 kts | 89° |
| 2026-04-20 17:28 | 52.42162 | 15.86277 | 37086 ft | 456 kts | 89° |
| 2026-04-20 17:28 | 52.42078 | 15.96625 | 37088 ft | 457 kts | 89° |
| 2026-04-20 17:29 | 52.41984 | 16.07089 | 37086 ft | 459 kts | 89° |
| 2026-04-20 17:29 | 52.41881 | 16.17544 | 37091 ft | 459 kts | 89° |
| 2026-04-20 17:30 | 52.41769 | 16.27941 | 37089 ft | 460 kts | 89° |
| 2026-04-20 17:30 | 52.41647 | 16.38422 | 37084 ft | 460 kts | 89° |
| 2026-04-20 17:31 | 52.41517 | 16.48850 | 37081 ft | 459 kts | 89° |
| 2026-04-20 17:31 | 52.41376 | 16.59307 | 37077 ft | 458 kts | 90° |
| 2026-04-20 17:32 | 52.41227 | 16.69747 | 37075 ft | 458 kts | 90° |
| 2026-04-20 17:32 | 52.41069 | 16.80195 | 37077 ft | 457 kts | 90° |
| 2026-04-20 17:33 | 52.40903 | 16.90539 | 37076 ft | 456 kts | 90° |
| 2026-04-20 17:33 | 52.40727 | 17.00973 | 36642 ft | 461 kts | 90° |
| 2026-04-20 17:33 | 52.40635 | 17.06225 | 36138 ft | 459 kts | 90° |
| 2026-04-20 17:34 | 52.40541 | 17.11437 | 35561 ft | 458 kts | 90° |
| 2026-04-20 17:34 | 52.40444 | 17.16658 | 34915 ft | 459 kts | 90° |
| 2026-04-20 17:34 | 52.40346 | 17.21824 | 34264 ft | 460 kts | 90° |
| 2026-04-20 17:34 | 52.40245 | 17.27074 | 33477 ft | 461 kts | 90° |
| 2026-04-20 17:35 | 52.40141 | 17.32311 | 32833 ft | 458 kts | 90° |
| 2026-04-20 17:35 | 52.40035 | 17.37504 | 32362 ft | 452 kts | 90° |
| 2026-04-20 17:35 | 52.39929 | 17.42632 | 31886 ft | 447 kts | 90° |
| 2026-04-20 17:35 | 52.39822 | 17.47693 | 31400 ft | 442 kts | 90° |
| 2026-04-20 17:36 | 52.39715 | 17.52639 | 30934 ft | 437 kts | 91° |
| 2026-04-20 17:36 | 52.39606 | 17.57589 | 30472 ft | 432 kts | 91° |
| 2026-04-20 17:36 | 52.39497 | 17.62480 | 29989 ft | 428 kts | 91° |
| 2026-04-20 17:36 | 52.39387 | 17.67327 | 29489 ft | 422 kts | 91° |
| 2026-04-20 17:37 | 52.39276 | 17.72089 | 29013 ft | 416 kts | 91° |
| 2026-04-20 17:37 | 52.39165 | 17.76797 | 28558 ft | 410 kts | 91° |
| 2026-04-20 17:37 | 52.39054 | 17.81435 | 28102 ft | 405 kts | 91° |
| 2026-04-20 17:37 | 52.38943 | 17.86024 | 27658 ft | 400 kts | 91° |
| 2026-04-20 17:38 | 52.38832 | 17.90502 | 27215 ft | 396 kts | 91° |
| 2026-04-20 17:38 | 52.38719 | 17.94993 | 26775 ft | 392 kts | 91° |
| 2026-04-20 17:38 | 52.38606 | 17.99445 | 26330 ft | 388 kts | 91° |
| 2026-04-20 17:38 | 52.38493 | 18.03801 | 25895 ft | 385 kts | 91° |
| 2026-04-20 17:39 | 52.38379 | 18.08165 | 25461 ft | 382 kts | 91° |
| 2026-04-20 17:39 | 52.38263 | 18.12512 | 25033 ft | 379 kts | 91° |
| 2026-04-20 17:39 | 52.38149 | 18.16768 | 24614 ft | 377 kts | 91° |
| 2026-04-20 17:39 | 52.38032 | 18.21047 | 24201 ft | 374 kts | 91° |
| 2026-04-20 17:40 | 52.37915 | 18.25290 | 23782 ft | 372 kts | 91° |
| 2026-04-20 17:40 | 52.37796 | 18.29517 | 23310 ft | 370 kts | 91° |
| 2026-04-20 17:40 | 52.37677 | 18.33720 | 22860 ft | 367 kts | 91° |
| 2026-04-20 17:40 | 52.37557 | 18.37871 | 22440 ft | 363 kts | 91° |
| 2026-04-20 17:41 | 52.37439 | 18.41932 | 22033 ft | 360 kts | 91° |
| 2026-04-20 17:41 | 52.37319 | 18.46008 | 21608 ft | 357 kts | 91° |
| 2026-04-20 17:41 | 52.37199 | 18.50055 | 21203 ft | 354 kts | 91° |
| 2026-04-20 17:41 | 52.37078 | 18.54063 | 20785 ft | 352 kts | 91° |
| 2026-04-20 17:42 | 52.36956 | 18.58053 | 20388 ft | 349 kts | 91° |
| 2026-04-20 17:42 | 52.36835 | 18.62005 | 19979 ft | 347 kts | 91° |
| 2026-04-20 17:42 | 52.36712 | 18.65950 | 19577 ft | 345 kts | 91° |
| 2026-04-20 17:42 | 52.36590 | 18.69825 | 19180 ft | 343 kts | 91° |
| 2026-04-20 17:43 | 52.36466 | 18.73724 | 18782 ft | 342 kts | 91° |
| 2026-04-20 17:43 | 52.36342 | 18.77596 | 18382 ft | 340 kts | 91° |
| 2026-04-20 17:43 | 52.36217 | 18.81454 | 17937 ft | 339 kts | 91° |
| 2026-04-20 17:43 | 52.36091 | 18.85298 | 17525 ft | 336 kts | 92° |
| 2026-04-20 17:44 | 52.35965 | 18.89116 | 17126 ft | 334 kts | 92° |
| 2026-04-20 17:44 | 52.35839 | 18.92891 | 16739 ft | 331 kts | 92° |
| 2026-04-20 17:44 | 52.35714 | 18.96600 | 16338 ft | 329 kts | 92° |
| 2026-04-20 17:44 | 52.35668 | 19.00343 | 15823 ft | 330 kts | 85° |
| 2026-04-20 17:45 | 52.35776 | 19.02822 | 15538 ft | 329 kts | 84° |
| 2026-04-20 17:45 | 52.36067 | 19.07801 | 14982 ft | 327 kts | 83° |
| 2026-04-20 17:45 | 52.36295 | 19.11496 | 14580 ft | 325 kts | 83° |
| 2026-04-20 17:45 | 52.36516 | 19.15180 | 14181 ft | 324 kts | 83° |
| 2026-04-20 17:46 | 52.36728 | 19.18834 | 13780 ft | 322 kts | 84° |
| 2026-04-20 17:46 | 52.36931 | 19.22468 | 13349 ft | 320 kts | 84° |
| 2026-04-20 17:46 | 52.37126 | 19.26031 | 12952 ft | 317 kts | 84° |
| 2026-04-20 17:46 | 52.37318 | 19.29620 | 12567 ft | 315 kts | 84° |
| 2026-04-20 17:47 | 52.37506 | 19.33180 | 12160 ft | 312 kts | 84° |
| 2026-04-20 17:47 | 52.37691 | 19.36710 | 11791 ft | 310 kts | 84° |
| 2026-04-20 17:47 | 52.37873 | 19.40219 | 11405 ft | 307 kts | 84° |
| 2026-04-20 17:47 | 52.38050 | 19.43659 | 11034 ft | 305 kts | 84° |
| 2026-04-20 17:48 | 52.38226 | 19.47113 | 10668 ft | 303 kts | 84° |
| 2026-04-20 17:48 | 52.38397 | 19.50491 | 10545 ft | 292 kts | 84° |
| 2026-04-20 17:48 | 52.38562 | 19.53765 | 10392 ft | 284 kts | 84° |
| 2026-04-20 17:48 | 52.38725 | 19.57014 | 10036 ft | 287 kts | 84° |
| 2026-04-20 17:49 | 52.38887 | 19.60249 | 9645 ft | 289 kts | 84° |
| 2026-04-20 17:49 | 52.39049 | 19.63519 | 9233 ft | 288 kts | 84° |
| 2026-04-20 17:49 | 52.39212 | 19.66814 | 8831 ft | 288 kts | 84° |
| 2026-04-20 17:49 | 52.39370 | 19.70048 | 8442 ft | 287 kts | 84° |
| 2026-04-20 17:50 | 52.39530 | 19.73312 | 7997 ft | 288 kts | 84° |
| 2026-04-20 17:50 | 52.39688 | 19.76585 | 7561 ft | 288 kts | 85° |
| 2026-04-20 17:50 | 52.39847 | 19.79867 | 7130 ft | 289 kts | 85° |
| 2026-04-20 17:50 | 52.40003 | 19.83140 | 6698 ft | 289 kts | 85° |
| 2026-04-20 17:51 | 52.40158 | 19.86381 | 6270 ft | 289 kts | 85° |
| 2026-04-20 17:51 | 52.40314 | 19.89669 | 5783 ft | 290 kts | 85° |
| 2026-04-20 17:51 | 52.40468 | 19.92960 | 5316 ft | 290 kts | 85° |
| 2026-04-20 17:51 | 52.40622 | 19.96249 | 4857 ft | 290 kts | 85° |
| 2026-04-20 17:52 | 52.40775 | 19.99543 | 4380 ft | 290 kts | 85° |
| 2026-04-20 17:52 | 52.40928 | 20.02835 | 3910 ft | 289 kts | 85° |
| 2026-04-20 17:52 | 52.41078 | 20.06115 | 3444 ft | 288 kts | 85° |
| 2026-04-20 17:52 | 52.41227 | 20.09378 | 3082 ft | 285 kts | 85° |
| 2026-04-20 17:53 | 52.41369 | 20.12497 | 3010 ft | 271 kts | 85° |
| 2026-04-20 17:53 | 52.41504 | 20.15498 | 2994 ft | 258 kts | 85° |
| 2026-04-20 17:53 | 52.41636 | 20.18421 | 2999 ft | 256 kts | 85° |
| 2026-04-20 17:53 | 52.41766 | 20.21335 | 3005 ft | 256 kts | 85° |
| 2026-04-20 17:54 | 52.41897 | 20.24249 | 3010 ft | 257 kts | 85° |
| 2026-04-20 17:54 | 52.42027 | 20.27166 | 2999 ft | 254 kts | 85° |
| 2026-04-20 17:54 | 52.42150 | 20.29978 | 2987 ft | 241 kts | 85° |
| 2026-04-20 17:54 | 52.42266 | 20.32647 | 2978 ft | 227 kts | 85° |
| 2026-04-20 17:55 | 52.42372 | 20.35118 | 2983 ft | 213 kts | 85° |
| 2026-04-20 17:55 | 52.42479 | 20.37471 | 2983 ft | 201 kts | 83° |
| 2026-04-20 17:55 | 52.42666 | 20.39662 | 2969 ft | 187 kts | 80° |
| 2026-04-20 17:55 | 52.42877 | 20.41769 | 2665 ft | 190 kts | 79° |
| 2026-04-20 17:56 | 52.43107 | 20.43871 | 2393 ft | 184 kts | 80° |
| 2026-04-20 17:56 | 52.43333 | 20.45897 | 2093 ft | 179 kts | 78° |
| 2026-04-20 17:56 | 52.43537 | 20.47828 | 1916 ft | 166 kts | 81° |
| 2026-04-20 17:56 | 52.43696 | 20.49639 | 1695 ft | 156 kts | 80° |
| 2026-04-20 17:57 | 52.43852 | 20.51328 | 1545 ft | 147 kts | 81° |
| 2026-04-20 17:57 | 52.44013 | 20.52957 | 1393 ft | 147 kts | 80° |
| 2026-04-20 17:57 | 52.44163 | 20.54644 | 1239 ft | 153 kts | 81° |
| 2026-04-20 17:57 | 52.44327 | 20.56427 | 1101 ft | 160 kts | 81° |
| 2026-04-20 17:58 | 52.44505 | 20.58238 | 863 ft | 159 kts | 80° |
| 2026-04-20 17:58 | 52.44647 | 20.60000 | 737 ft | 151 kts | 81° |
| 2026-04-20 17:58 | 52.44805 | 20.61627 | 600 ft | 141 kts | 81° |
| 2026-04-20 17:58 | 52.44937 | 20.63172 | 407 ft | 133 kts | 80° |
| 2026-04-20 17:59 | 52.45080 | 20.64608 | 337 ft | 112 kts | 82° |
| 2026-04-20 17:59 | 52.45184 | 20.65766 | 337 ft | 93 kts | 81° |
| 2026-04-20 17:59 | 52.45252 | 20.66558 | 335 ft | 48 kts | 81° |
| 2026-04-20 17:59 | 52.45273 | 20.66955 | 338 ft | 19 kts | 117° |
| 2026-04-20 18:00 | 52.45160 | 20.67043 | 337 ft | 18 kts | 167° |
| 2026-04-20 18:00 | 52.45037 | 20.67076 | 335 ft | 17 kts | 171° |
| 2026-04-20 18:00 | 52.44957 | 20.67036 | 334 ft | 10 kts | 240° |
| 2026-04-20 18:00 | 52.44943 | 20.66904 | 337 ft | 15 kts | 262° |
| 2026-04-20 18:01 | 52.44919 | 20.66678 | 335 ft | 25 kts | 261° |
| 2026-04-20 18:01 | 52.44892 | 20.66368 | 334 ft | 28 kts | 261° |
| 2026-04-20 18:01 | 52.44864 | 20.66062 | 335 ft | 26 kts | 261° |
| 2026-04-20 18:01 | 52.44838 | 20.65773 | 333 ft | 26 kts | 262° |
| 2026-04-20 18:02 | 52.44820 | 20.65576 | 333 ft | 25 kts | 263° |
| 2026-04-20 18:02 | 52.44783 | 20.65367 | 337 ft | 14 kts | 223° |
| 2026-04-20 18:02 | 52.44753 | 20.65341 | 337 ft | 0 kts | 205° |
| 2026-04-20 18:02 | 52.44751 | 20.65338 | 334 ft | 0 kts | 208° |